AVA1408 SKBO-SKRG
Flight info
| Callsign | AVA1408 |
|---|---|
| Flight time | 0h 28m |
| Altitude | 21000 |
| Route | TOBKI1S VASIL W36 NIRSO NIRSO3C |
| Aircraft | A20N/M-SDE2E3FGHIRWXY/LB1 |
Departure
| Time | 2026-05-06 14:58 |
|---|---|
| Airport | El Dorado International Airport (SKBO) |
Arrival
| Time | 2026-05-06 15:27 |
|---|---|
| Airport | Jose Maria Córdova International Airport (SKRG) |
| Time | Latitude | Longitude | Altitude | Speed | Heading |
|---|---|---|---|---|---|
| 2026-05-06 14:42 | 4.69877 | -74.14447 | 8369 ft | 0 kts | 220° |
| 2026-05-06 14:49 | 4.69880 | -74.14445 | 8369 ft | 2 kts | 220° |
| 2026-05-06 14:50 | 4.69892 | -74.14435 | 8369 ft | 2 kts | 221° |
| 2026-05-06 14:50 | 4.69905 | -74.14424 | 8369 ft | 2 kts | 223° |
| 2026-05-06 14:50 | 4.69916 | -74.14411 | 8369 ft | 2 kts | 279° |
| 2026-05-06 14:50 | 4.69914 | -74.14406 | 8369 ft | 0 kts | 326° |
| 2026-05-06 14:51 | 4.69915 | -74.14409 | 8369 ft | 1 kts | 308° |
| 2026-05-06 14:52 | 4.69928 | -74.14425 | 8369 ft | 5 kts | 308° |
| 2026-05-06 14:52 | 4.69957 | -74.14462 | 8369 ft | 9 kts | 308° |
| 2026-05-06 14:52 | 4.70003 | -74.14519 | 8369 ft | 12 kts | 309° |
| 2026-05-06 14:52 | 4.70041 | -74.14601 | 8369 ft | 15 kts | 280° |
| 2026-05-06 14:53 | 4.70033 | -74.14702 | 8368 ft | 16 kts | 229° |
| 2026-05-06 14:53 | 4.69937 | -74.14772 | 8368 ft | 18 kts | 217° |
| 2026-05-06 14:53 | 4.69830 | -74.14853 | 8367 ft | 20 kts | 221° |
| 2026-05-06 14:53 | 4.69851 | -74.14974 | 8367 ft | 21 kts | 308° |
| 2026-05-06 14:54 | 4.69943 | -74.15096 | 8367 ft | 23 kts | 308° |
| 2026-05-06 14:54 | 4.70041 | -74.15224 | 8367 ft | 24 kts | 307° |
| 2026-05-06 14:54 | 4.70148 | -74.15364 | 8366 ft | 26 kts | 307° |
| 2026-05-06 14:54 | 4.70259 | -74.15511 | 8366 ft | 27 kts | 307° |
| 2026-05-06 14:55 | 4.70375 | -74.15667 | 8366 ft | 29 kts | 308° |
| 2026-05-06 14:55 | 4.70498 | -74.15828 | 8366 ft | 29 kts | 307° |
| 2026-05-06 14:55 | 4.70623 | -74.15994 | 8366 ft | 30 kts | 307° |
| 2026-05-06 14:55 | 4.70753 | -74.16166 | 8366 ft | 31 kts | 307° |
| 2026-05-06 14:56 | 4.70885 | -74.16340 | 8365 ft | 32 kts | 307° |
| 2026-05-06 14:56 | 4.71022 | -74.16520 | 8365 ft | 33 kts | 307° |
| 2026-05-06 14:56 | 4.71154 | -74.16696 | 8365 ft | 31 kts | 307° |
| 2026-05-06 14:56 | 4.71140 | -74.16839 | 8364 ft | 24 kts | 222° |
| 2026-05-06 14:57 | 4.71005 | -74.16851 | 8364 ft | 21 kts | 134° |
| 2026-05-06 14:57 | 4.70917 | -74.16732 | 8364 ft | 32 kts | 127° |
| 2026-05-06 14:57 | 4.70673 | -74.16415 | 8366 ft | 82 kts | 128° |
| 2026-05-06 14:57 | 4.70227 | -74.15826 | 8365 ft | 133 kts | 127° |
| 2026-05-06 14:58 | 4.69572 | -74.14965 | 8365 ft | 176 kts | 126° |
| 2026-05-06 14:58 | 4.68791 | -74.13903 | 8549 ft | 187 kts | 127° |
| 2026-05-06 14:58 | 4.68047 | -74.12956 | 9400 ft | 162 kts | 141° |
| 2026-05-06 14:58 | 4.67039 | -74.12700 | 9883 ft | 154 kts | 204° |
| 2026-05-06 14:59 | 4.66281 | -74.13479 | 10036 ft | 173 kts | 236° |
| 2026-05-06 14:59 | 4.65546 | -74.14497 | 10468 ft | 174 kts | 233° |
| 2026-05-06 14:59 | 4.64859 | -74.15480 | 11162 ft | 173 kts | 238° |
| 2026-05-06 14:59 | 4.64196 | -74.16556 | 11396 ft | 196 kts | 239° |
| 2026-05-06 15:00 | 4.63435 | -74.17796 | 11616 ft | 218 kts | 238° |
| 2026-05-06 15:00 | 4.62588 | -74.19147 | 11951 ft | 237 kts | 238° |
| 2026-05-06 15:00 | 4.61737 | -74.20628 | 12305 ft | 255 kts | 249° |
| 2026-05-06 15:00 | 4.61224 | -74.22369 | 12718 ft | 271 kts | 258° |
| 2026-05-06 15:01 | 4.60837 | -74.24297 | 13030 ft | 290 kts | 259° |
| 2026-05-06 15:01 | 4.60461 | -74.26341 | 13329 ft | 308 kts | 261° |
| 2026-05-06 15:01 | 4.60221 | -74.28518 | 13650 ft | 324 kts | 266° |
| 2026-05-06 15:01 | 4.60084 | -74.30839 | 13935 ft | 340 kts | 267° |
| 2026-05-06 15:02 | 4.59961 | -74.33266 | 14325 ft | 353 kts | 267° |
| 2026-05-06 15:02 | 4.59835 | -74.35733 | 14962 ft | 358 kts | 267° |
| 2026-05-06 15:02 | 4.59705 | -74.38227 | 15649 ft | 362 kts | 267° |
| 2026-05-06 15:02 | 4.59761 | -74.40772 | 16328 ft | 365 kts | 278° |
| 2026-05-06 15:03 | 4.60302 | -74.43262 | 17037 ft | 368 kts | 285° |
| 2026-05-06 15:03 | 4.60994 | -74.45718 | 17728 ft | 371 kts | 286° |
| 2026-05-06 15:03 | 4.61728 | -74.48231 | 18373 ft | 375 kts | 286° |
| 2026-05-06 15:03 | 4.62456 | -74.50727 | 18988 ft | 378 kts | 286° |
| 2026-05-06 15:04 | 4.63200 | -74.53295 | 19620 ft | 381 kts | 286° |
| 2026-05-06 15:04 | 4.63946 | -74.55883 | 20219 ft | 385 kts | 286° |
| 2026-05-06 15:04 | 4.64698 | -74.58463 | 20725 ft | 389 kts | 288° |
| 2026-05-06 15:04 | 4.65819 | -74.60938 | 20963 ft | 389 kts | 304° |
| 2026-05-06 15:05 | 4.67608 | -74.62842 | 20995 ft | 378 kts | 324° |
| 2026-05-06 15:05 | 4.69944 | -74.64004 | 21002 ft | 373 kts | 342° |
| 2026-05-06 15:05 | 4.72476 | -74.64653 | 21001 ft | 374 kts | 347° |
| 2026-05-06 15:05 | 4.75015 | -74.65190 | 21000 ft | 374 kts | 348° |
| 2026-05-06 15:06 | 4.77550 | -74.65717 | 20999 ft | 376 kts | 348° |
| 2026-05-06 15:06 | 4.80120 | -74.66259 | 21003 ft | 377 kts | 348° |
| 2026-05-06 15:06 | 4.82678 | -74.66831 | 21000 ft | 376 kts | 344° |
| 2026-05-06 15:06 | 4.85083 | -74.67832 | 20999 ft | 373 kts | 328° |
| 2026-05-06 15:07 | 4.87220 | -74.69322 | 21001 ft | 373 kts | 322° |
| 2026-05-06 15:07 | 4.89270 | -74.70921 | 21000 ft | 373 kts | 321° |
| 2026-05-06 15:07 | 4.91305 | -74.72535 | 21000 ft | 373 kts | 321° |
| 2026-05-06 15:07 | 4.93259 | -74.74187 | 20997 ft | 372 kts | 314° |
| 2026-05-06 15:08 | 4.94837 | -74.76236 | 21003 ft | 370 kts | 300° |
| 2026-05-06 15:08 | 4.96047 | -74.78525 | 21001 ft | 371 kts | 296° |
| 2026-05-06 15:08 | 4.97172 | -74.80851 | 21001 ft | 371 kts | 295° |
| 2026-05-06 15:08 | 4.98283 | -74.83171 | 21000 ft | 371 kts | 295° |
| 2026-05-06 15:09 | 4.99397 | -74.85486 | 20999 ft | 371 kts | 295° |
| 2026-05-06 15:09 | 5.00540 | -74.87852 | 21002 ft | 372 kts | 296° |
| 2026-05-06 15:09 | 5.01301 | -74.89422 | 21001 ft | 371 kts | 296° |
| 2026-05-06 15:09 | 5.02409 | -74.91705 | 21004 ft | 371 kts | 296° |
| 2026-05-06 15:10 | 5.03541 | -74.94034 | 20999 ft | 372 kts | 296° |
| 2026-05-06 15:10 | 5.04661 | -74.96336 | 21001 ft | 373 kts | 296° |
| 2026-05-06 15:10 | 5.05806 | -74.98691 | 21000 ft | 374 kts | 296° |
| 2026-05-06 15:10 | 5.06936 | -75.01015 | 21001 ft | 375 kts | 296° |
| 2026-05-06 15:11 | 5.08095 | -75.03396 | 20997 ft | 376 kts | 296° |
| 2026-05-06 15:11 | 5.09243 | -75.05757 | 21001 ft | 377 kts | 296° |
| 2026-05-06 15:11 | 5.10381 | -75.08096 | 21000 ft | 377 kts | 296° |
| 2026-05-06 15:11 | 5.11538 | -75.10477 | 21000 ft | 377 kts | 296° |
| 2026-05-06 15:12 | 5.12691 | -75.12848 | 21000 ft | 377 kts | 296° |
| 2026-05-06 15:12 | 5.13830 | -75.15192 | 21001 ft | 378 kts | 296° |
| 2026-05-06 15:12 | 5.15001 | -75.17566 | 20997 ft | 380 kts | 298° |
| 2026-05-06 15:12 | 5.16486 | -75.19772 | 21002 ft | 378 kts | 309° |
| 2026-05-06 15:13 | 5.18170 | -75.21753 | 20999 ft | 373 kts | 311° |
| 2026-05-06 15:13 | 5.19894 | -75.23693 | 20999 ft | 372 kts | 311° |
| 2026-05-06 15:13 | 5.21630 | -75.25639 | 21000 ft | 373 kts | 311° |
| 2026-05-06 15:13 | 5.23350 | -75.27573 | 21003 ft | 374 kts | 311° |
| 2026-05-06 15:14 | 5.25088 | -75.29532 | 21001 ft | 374 kts | 311° |
| 2026-05-06 15:14 | 5.26812 | -75.31478 | 21002 ft | 375 kts | 311° |
| 2026-05-06 15:14 | 5.28541 | -75.33432 | 21003 ft | 376 kts | 311° |
| 2026-05-06 15:14 | 5.30288 | -75.35408 | 20999 ft | 377 kts | 311° |
| 2026-05-06 15:15 | 5.32037 | -75.37364 | 20724 ft | 372 kts | 314° |
| 2026-05-06 15:15 | 5.33992 | -75.38962 | 20487 ft | 364 kts | 329° |
| 2026-05-06 15:15 | 5.36348 | -75.39862 | 19944 ft | 365 kts | 349° |
| 2026-05-06 15:15 | 5.38915 | -75.40142 | 19425 ft | 366 kts | 356° |
| 2026-05-06 15:16 | 5.41464 | -75.40275 | 18921 ft | 365 kts | 357° |
| 2026-05-06 15:16 | 5.44007 | -75.40392 | 18425 ft | 363 kts | 357° |
| 2026-05-06 15:16 | 5.46496 | -75.40513 | 17939 ft | 360 kts | 356° |
| 2026-05-06 15:16 | 5.49005 | -75.40642 | 17447 ft | 358 kts | 356° |
| 2026-05-06 15:17 | 5.51492 | -75.40774 | 16945 ft | 356 kts | 356° |
| 2026-05-06 15:17 | 5.53977 | -75.40908 | 16362 ft | 357 kts | 356° |
| 2026-05-06 15:17 | 5.56426 | -75.41042 | 15816 ft | 356 kts | 356° |
| 2026-05-06 15:17 | 5.58895 | -75.41178 | 15356 ft | 352 kts | 356° |
| 2026-05-06 15:18 | 5.61333 | -75.41312 | 14637 ft | 352 kts | 356° |
| 2026-05-06 15:18 | 5.63789 | -75.41449 | 14099 ft | 351 kts | 356° |
| 2026-05-06 15:18 | 5.66163 | -75.41581 | 13705 ft | 345 kts | 356° |
| 2026-05-06 15:18 | 5.68574 | -75.41715 | 13596 ft | 332 kts | 356° |
| 2026-05-06 15:19 | 5.70822 | -75.41840 | 13584 ft | 316 kts | 356° |
| 2026-05-06 15:19 | 5.72961 | -75.41959 | 13579 ft | 300 kts | 356° |
| 2026-05-06 15:19 | 5.74972 | -75.42070 | 13575 ft | 284 kts | 356° |
| 2026-05-06 15:19 | 5.76955 | -75.42174 | 13126 ft | 286 kts | 358° |
| 2026-05-06 15:20 | 5.78942 | -75.42209 | 12701 ft | 285 kts | 359° |
| 2026-05-06 15:20 | 5.80900 | -75.42215 | 12424 ft | 276 kts | 359° |
| 2026-05-06 15:20 | 5.82756 | -75.42214 | 12282 ft | 263 kts | 360° |
| 2026-05-06 15:20 | 5.84598 | -75.42210 | 12040 ft | 266 kts | 1° |
| 2026-05-06 15:21 | 5.86433 | -75.42181 | 11690 ft | 263 kts | 0° |
| 2026-05-06 15:21 | 5.88245 | -75.42151 | 11588 ft | 248 kts | 0° |
| 2026-05-06 15:21 | 5.88805 | -75.42146 | 11583 ft | 243 kts | 360° |
| 2026-05-06 15:21 | 5.89601 | -75.42143 | 11572 ft | 238 kts | 359° |
| 2026-05-06 15:22 | 5.91209 | -75.42144 | 11515 ft | 224 kts | 359° |
| 2026-05-06 15:22 | 5.92717 | -75.42151 | 11393 ft | 213 kts | 359° |
| 2026-05-06 15:22 | 5.94179 | -75.42165 | 11143 ft | 206 kts | 359° |
| 2026-05-06 15:22 | 5.95594 | -75.42175 | 10794 ft | 199 kts | 359° |
| 2026-05-06 15:23 | 5.96956 | -75.42184 | 10473 ft | 196 kts | 359° |
| 2026-05-06 15:23 | 5.98294 | -75.42194 | 10203 ft | 189 kts | 359° |
| 2026-05-06 15:23 | 5.99604 | -75.42202 | 9937 ft | 190 kts | 359° |
| 2026-05-06 15:23 | 6.00928 | -75.42211 | 9680 ft | 189 kts | 359° |
| 2026-05-06 15:24 | 6.02252 | -75.42222 | 9445 ft | 190 kts | 359° |
| 2026-05-06 15:24 | 6.03561 | -75.42228 | 9180 ft | 189 kts | 359° |
| 2026-05-06 15:24 | 6.04873 | -75.42237 | 8957 ft | 188 kts | 359° |
| 2026-05-06 15:24 | 6.06194 | -75.42246 | 8673 ft | 187 kts | 359° |
| 2026-05-06 15:25 | 6.07477 | -75.42254 | 8432 ft | 186 kts | 359° |
| 2026-05-06 15:25 | 6.08784 | -75.42262 | 8195 ft | 186 kts | 359° |
| 2026-05-06 15:25 | 6.10067 | -75.42271 | 7920 ft | 184 kts | 359° |
| 2026-05-06 15:25 | 6.11354 | -75.42288 | 7786 ft | 185 kts | 358° |
| 2026-05-06 15:26 | 6.12626 | -75.42315 | 7519 ft | 184 kts | 358° |
| 2026-05-06 15:26 | 6.13910 | -75.42332 | 7303 ft | 184 kts | 0° |
| 2026-05-06 15:26 | 6.15170 | -75.42296 | 7080 ft | 180 kts | 1° |
| 2026-05-06 15:26 | 6.16339 | -75.42301 | 7048 ft | 143 kts | 357° |
| 2026-05-06 15:27 | 6.17042 | -75.42310 | 7054 ft | 61 kts | 359° |
| 2026-05-06 15:27 | 6.17323 | -75.42314 | 7057 ft | 31 kts | 0° |
| 2026-05-06 15:27 | 6.17533 | -75.42331 | 7055 ft | 30 kts | 335° |
| 2026-05-06 15:27 | 6.17544 | -75.42490 | 7049 ft | 25 kts | 226° |
| 2026-05-06 15:28 | 6.17400 | -75.42597 | 7046 ft | 27 kts | 213° |
| 2026-05-06 15:28 | 6.17259 | -75.42720 | 7041 ft | 13 kts | 230° |
| 2026-05-06 15:28 | 6.17254 | -75.42726 | 7041 ft | 1 kts | 228° |
| 2026-05-06 15:28 | 6.17251 | -75.42729 | 7041 ft | 0 kts | 229° |
| 2026-05-06 15:29 | 6.17250 | -75.42730 | 7041 ft | 0 kts | 229° |